KCZ weather

Kōchi Ryōma Airport
Nankoku, Kōchi Prefecture, Japan

Public forecast

Using degrees Celsius for public forecast. Weather courtesy of forecast.io.

Current aviation weather report (METAR) for Kōchi Ryōma Airport

Retrieved 2019/12/06 05:00 UTC (26 minutes ago):

RJOK 060500Z 34014KT 9999 FEW025 SCT160 BKN170 10/M01 Q1025

Aviation forecast (TAF) for Kōchi Ryōma Airport

Retrieved 2019-12-06 00:36 UTC (5 hours ago):

TAF RJOK 052309Z 0600/0706 35012KT 9999 FEW030